Timiskaming Regional Airport
CYXR : now visible

Airfield :











YOU CAN JOIN US ON...

 
LOGIN :

Register | Disclaimer

   EN    FR    IT 

 









Legend :    VFR   Marginal VFR   IFR   Intensive IFR   Very Intensive IFR
Visi :
Ceiling :
>= 8 km
>= 3000ft
5 to 8 km
1000 to 3000 ft
1500m to 5 km
500 to 1000 ft
800 to 1500m
200 to 500 ft
< 800m
< 200 ft
Symbols :   Thunderstorms  Fog  Heavy snow  Heavy precipitations  Wind > 20 kt






- Airport Elevation : 798 ft
- IATA code : YXR


CYXR - Timiskaming Regional

CURRENT METAR :
  • 281300Z AUTO 31009KT 9SM OVC020 M19/M23 A3036 RMK SLP309

EXPIRED METARs :
  • 281200Z AUTO 32014G19KT 9SM OVC020 M20/M23 A3035 RMK SLP305
  • 281130Z AUTO 31012KT 9SM OVC022 M20/M23 A3035 RMK SLP304
  • 281120Z AUTO 30011KT 9SM -SN OVC022 M20/M23 A3035 RMK SLP304
  • 281100Z AUTO 30010KT 9SM BKN024 M21/M24 A3035 RMK SLP306
  • 281058Z AUTO 30010KT 9SM BKN024 M21/M24 A3035 RMK SLP306

TAF TAF CYXR
Valid from the 28 at 13:00 until the 29 at 01:00 UTC


281238Z 2813/2901 32012G22KT P6SM OVC025
TEMPO 2813/2901 5SM -SN OVC020
BECMG 2822/2824 30010KT RMK FCST BASED ON AUTO OBS. NXT FCST BY 281800Z
CZYZ FIR / North America



MET'MAP, your aeronautical weather chart ! - Copyright ORBIFLY December 2007 - Disclaimer

ORBIFLY MET'MAP TEAM :

Programming & Development : Alexandra Zaïnal
Concept & original design : Baudouin d'Aumeries
Assistance for programming : Marc-Olivier Méhu
Technical & hardware support : Manuel Goepfert

Contact : metmap@orbifly.com




SOURCES & CREDITS :

   NOAA       Earth
Advisory